sensor_id;sensor_type;location;lat;lon;timestamp;pressure;altitude;pressure_sealevel;temperature;humidity
52319;BME280;38258;51.148;14.068;2023-03-13T00:02:18;97577.44;;;5.70;100.00
52319;BME280;38258;51.148;14.068;2023-03-13T00:04:45;97582.63;;;5.68;100.00
52319;BME280;38258;51.148;14.068;2023-03-13T00:07:11;97585.94;;;5.76;100.00
52319;BME280;38258;51.148;14.068;2023-03-13T00:09:38;97576.66;;;5.64;100.00
52319;BME280;38258;51.148;14.068;2023-03-13T00:12:06;97582.72;;;5.63;100.00
52319;BME280;38258;51.148;14.068;2023-03-13T00:14:33;97590.19;;;5.79;100.00
52319;BME280;38258;51.148;14.068;2023-03-13T00:17:00;97580.69;;;5.78;100.00
52319;BME280;38258;51.148;14.068;2023-03-13T00:19:27;97583.03;;;5.90;100.00
52319;BME280;38258;51.148;14.068;2023-03-13T00:21:53;97582.81;;;6.00;100.00
52319;BME280;38258;51.148;14.068;2023-03-13T00:24:20;97580.44;;;5.90;100.00
52319;BME280;38258;51.148;14.068;2023-03-13T00:26:46;97583.00;;;5.92;100.00
52319;BME280;38258;51.148;14.068;2023-03-13T00:29:14;97575.06;;;5.98;100.00
52319;BME280;38258;51.148;14.068;2023-03-13T00:31:44;97586.19;;;6.05;100.00
52319;BME280;38258;51.148;14.068;2023-03-13T00:34:11;97583.81;;;5.94;100.00
52319;BME280;38258;51.148;14.068;2023-03-13T00:36:37;97540.13;;;5.75;100.00
52319;BME280;38258;51.148;14.068;2023-03-13T00:39:05;97583.84;;;5.92;100.00
52319;BME280;38258;51.148;14.068;2023-03-13T00:41:34;97588.72;;;6.08;100.00
52319;BME280;38258;51.148;14.068;2023-03-13T00:44:03;97587.19;;;5.98;100.00
52319;BME280;38258;51.148;14.068;2023-03-13T00:46:31;97571.13;;;5.80;100.00
52319;BME280;38258;51.148;14.068;2023-03-13T00:48:58;97589.81;;;5.96;100.00
52319;BME280;38258;51.148;14.068;2023-03-13T00:51:25;97589.09;;;5.89;100.00
52319;BME280;38258;51.148;14.068;2023-03-13T00:53:52;97574.34;;;5.91;100.00
52319;BME280;38258;51.148;14.068;2023-03-13T00:56:20;97585.41;;;6.01;100.00
52319;BME280;38258;51.148;14.068;2023-03-13T00:58:48;97583.81;;;5.94;100.00
52319;BME280;38258;51.148;14.068;2023-03-13T01:01:16;97581.06;;;6.02;100.00
52319;BME280;38258;51.148;14.068;2023-03-13T01:03:47;97562.00;;;6.04;100.00
52319;BME280;38258;51.148;14.068;2023-03-13T01:06:16;97571.38;;;6.10;100.00
52319;BME280;38258;51.148;14.068;2023-03-13T01:08:43;97576.75;;;5.99;100.00
52319;BME280;38258;51.148;14.068;2023-03-13T01:11:12;97581.78;;;6.08;100.00
52319;BME280;38258;51.148;14.068;2023-03-13T01:13:39;97547.38;;;5.99;100.00
52319;BME280;38258;51.148;14.068;2023-03-13T01:16:08;97566.19;;;6.10;100.00
52319;BME280;38258;51.148;14.068;2023-03-13T01:18:36;97559.38;;;6.04;100.00
52319;BME280;38258;51.148;14.068;2023-03-13T01:21:05;97554.91;;;6.11;100.00
52319;BME280;38258;51.148;14.068;2023-03-13T01:23:32;97547.44;;;5.96;100.00
52319;BME280;38258;51.148;14.068;2023-03-13T01:25:58;97544.16;;;5.89;100.00
52319;BME280;38258;51.148;14.068;2023-03-13T01:28:25;97540.00;;;5.80;100.00
52319;BME280;38258;51.148;14.068;2023-03-13T01:30:53;97545.78;;;5.91;100.00
52319;BME280;38258;51.148;14.068;2023-03-13T01:33:19;97550.34;;;5.82;100.00
52319;BME280;38258;51.148;14.068;2023-03-13T01:35:46;97550.53;;;5.72;100.00
52319;BME280;38258;51.148;14.068;2023-03-13T01:38:14;97537.69;;;5.68;100.00
52319;BME280;38258;51.148;14.068;2023-03-13T01:40:43;97540.16;;;5.72;100.00
52319;BME280;38258;51.148;14.068;2023-03-13T01:43:17;97539.16;;;5.79;100.00
52319;BME280;38258;51.148;14.068;2023-03-13T01:45:58;97512.84;;;5.57;100.00
52319;BME280;38258;51.148;14.068;2023-03-13T01:48:35;97538.63;;;5.63;100.00
52319;BME280;38258;51.148;14.068;2023-03-13T01:51:08;97463.34;;;5.27;100.00
52319;BME280;38258;51.148;14.068;2023-03-13T01:53:41;97457.44;;;5.20;100.00
52319;BME280;38258;51.148;14.068;2023-03-13T01:56:13;97485.72;;;5.33;100.00
52319;BME280;38258;51.148;14.068;2023-03-13T01:58:43;97452.53;;;5.08;100.00
52319;BME280;38258;51.148;14.068;2023-03-13T02:01:11;97408.16;;;4.81;100.00
52319;BME280;38258;51.148;14.068;2023-03-13T02:03:38;97511.13;;;5.56;100.00
52319;BME280;38258;51.148;14.068;2023-03-13T02:06:06;97478.69;;;5.36;100.00
52319;BME280;38258;51.148;14.068;2023-03-13T02:08:39;97522.31;;;5.60;100.00
52319;BME280;38258;51.148;14.068;2023-03-13T02:11:18;97453.78;;;5.31;100.00
52319;BME280;38258;51.148;14.068;2023-03-13T02:13:47;97424.75;;;5.13;100.00
52319;BME280;38258;51.148;14.068;2023-03-13T02:16:15;97516.06;;;5.67;100.00
52319;BME280;38258;51.148;14.068;2023-03-13T02:18:47;97421.16;;;5.20;100.00
52319;BME280;38258;51.148;14.068;2023-03-13T02:21:21;97471.94;;;5.31;100.00
52319;BME280;38258;51.148;14.068;2023-03-13T02:23:56;97479.63;;;5.34;100.00
52319;BME280;38258;51.148;14.068;2023-03-13T02:26:25;97510.88;;;5.67;100.00
52319;BME280;38258;51.148;14.068;2023-03-13T02:28:52;97513.56;;;5.64;100.00
52319;BME280;38258;51.148;14.068;2023-03-13T02:31:19;97447.31;;;5.09;100.00
52319;BME280;38258;51.148;14.068;2023-03-13T02:33:46;97442.41;;;4.97;100.00
52319;BME280;38258;51.148;14.068;2023-03-13T02:36:17;97483.63;;;5.08;100.00
52319;BME280;38258;51.148;14.068;2023-03-13T02:38:49;97501.59;;;5.17;100.00
52319;BME280;38258;51.148;14.068;2023-03-13T02:41:19;97496.25;;;5.23;100.00
52319;BME280;38258;51.148;14.068;2023-03-13T02:43:48;97491.25;;;5.16;100.00
52319;BME280;38258;51.148;14.068;2023-03-13T02:46:17;97498.84;;;5.23;100.00
52319;BME280;38258;51.148;14.068;2023-03-13T02:48:49;97460.16;;;5.14;100.00
52319;BME280;38258;51.148;14.068;2023-03-13T02:51:21;97492.53;;;5.37;100.00
52319;BME280;38258;51.148;14.068;2023-03-13T02:53:51;97458.38;;;5.16;100.00
52319;BME280;38258;51.148;14.068;2023-03-13T02:56:22;97479.81;;;5.24;100.00
52319;BME280;38258;51.148;14.068;2023-03-13T02:58:51;97487.50;;;5.29;100.00
52319;BME280;38258;51.148;14.068;2023-03-13T03:01:21;97465.91;;;5.29;100.00
52319;BME280;38258;51.148;14.068;2023-03-13T03:03:48;97490.31;;;5.59;100.00
52319;BME280;38258;51.148;14.068;2023-03-13T03:06:15;97481.91;;;5.48;100.00
52319;BME280;38258;51.148;14.068;2023-03-13T03:08:42;97471.78;;;5.37;100.00
52319;BME280;38258;51.148;14.068;2023-03-13T03:11:11;97496.41;;;5.57;100.00
52319;BME280;38258;51.148;14.068;2023-03-13T03:13:39;97490.16;;;5.65;100.00
52319;BME280;38258;51.148;14.068;2023-03-13T03:16:08;97494.78;;;5.90;100.00
52319;BME280;38258;51.148;14.068;2023-03-13T03:18:36;97481.16;;;5.82;100.00
52319;BME280;38258;51.148;14.068;2023-03-13T03:21:04;97490.38;;;5.94;100.00
52319;BME280;38258;51.148;14.068;2023-03-13T03:23:35;97493.78;;;5.96;100.00
52319;BME280;38258;51.148;14.068;2023-03-13T03:26:03;97486.81;;;5.98;100.00
52319;BME280;38258;51.148;14.068;2023-03-13T03:28:31;97482.31;;;6.06;100.00
52319;BME280;38258;51.148;14.068;2023-03-13T03:31:03;97472.84;;;6.04;100.00
52319;BME280;38258;51.148;14.068;2023-03-13T03:33:32;97476.25;;;6.06;100.00
52319;BME280;38258;51.148;14.068;2023-03-13T03:35:59;97467.56;;;6.08;100.00
52319;BME280;38258;51.148;14.068;2023-03-13T03:38:26;97451.19;;;6.05;100.00
52319;BME280;38258;51.148;14.068;2023-03-13T03:40:53;97405.94;;;5.79;100.00
52319;BME280;38258;51.148;14.068;2023-03-13T03:43:20;97367.41;;;5.63;100.00
52319;BME280;38258;51.148;14.068;2023-03-13T03:45:47;97441.41;;;6.15;100.00
52319;BME280;38258;51.148;14.068;2023-03-13T03:48:13;97427.97;;;5.99;100.00
52319;BME280;38258;51.148;14.068;2023-03-13T03:50:42;97437.19;;;6.12;100.00
52319;BME280;38258;51.148;14.068;2023-03-13T03:53:09;97434.81;;;6.03;100.00
52319;BME280;38258;51.148;14.068;2023-03-13T03:55:36;97422.63;;;6.05;100.00
52319;BME280;38258;51.148;14.068;2023-03-13T03:58:02;97427.69;;;6.11;100.00
52319;BME280;38258;51.148;14.068;2023-03-13T04:00:49;97416.63;;;6.03;100.00
52319;BME280;38258;51.148;14.068;2023-03-13T04:03:16;97382.38;;;5.87;100.00
52319;BME280;38258;51.148;14.068;2023-03-13T04:05:44;97409.66;;;6.05;100.00
52319;BME280;38258;51.148;14.068;2023-03-13T04:08:10;97400.06;;;6.08;100.00
52319;BME280;38258;51.148;14.068;2023-03-13T04:10:37;97392.28;;;6.07;100.00
52319;BME280;38258;51.148;14.068;2023-03-13T04:13:04;97392.97;;;6.14;100.00
52319;BME280;38258;51.148;14.068;2023-03-13T04:15:31;97399.16;;;6.10;100.00
52319;BME280;38258;51.148;14.068;2023-03-13T04:17:57;97383.09;;;5.93;100.00
52319;BME280;38258;51.148;14.068;2023-03-13T04:20:25;97395.22;;;5.93;100.00
52319;BME280;38258;51.148;14.068;2023-03-13T04:22:54;97381.88;;;6.08;100.00
52319;BME280;38258;51.148;14.068;2023-03-13T04:25:21;97387.19;;;6.04;100.00
52319;BME280;38258;51.148;14.068;2023-03-13T04:27:50;97382.94;;;6.00;100.00
52319;BME280;38258;51.148;14.068;2023-03-13T04:30:20;97381.25;;;5.99;100.00
52319;BME280;38258;51.148;14.068;2023-03-13T04:33:16;97341.84;;;5.83;100.00
52319;BME280;38258;51.148;14.068;2023-03-13T04:35:52;97358.72;;;5.64;100.00
52319;BME280;38258;51.148;14.068;2023-03-13T04:38:43;97366.88;;;5.85;100.00
52319;BME280;38258;51.148;14.068;2023-03-13T04:41:29;97364.59;;;5.73;100.00
52319;BME280;38258;51.148;14.068;2023-03-13T04:44:10;97354.13;;;5.76;100.00
52319;BME280;38258;51.148;14.068;2023-03-13T04:46:55;97349.00;;;5.74;100.00
52319;BME280;38258;51.148;14.068;2023-03-13T04:49:40;97343.63;;;5.80;100.00
52319;BME280;38258;51.148;14.068;2023-03-13T04:52:14;97351.91;;;5.95;100.00
52319;BME280;38258;51.148;14.068;2023-03-13T04:55:12;97337.44;;;5.86;100.00
52319;BME280;38258;51.148;14.068;2023-03-13T04:57:46;97338.97;;;5.93;100.00
52319;BME280;38258;51.148;14.068;2023-03-13T05:00:38;97304.56;;;5.52;100.00
52319;BME280;38258;51.148;14.068;2023-03-13T05:03:18;97324.88;;;5.69;100.00
52319;BME280;38258;51.148;14.068;2023-03-13T05:05:52;97305.50;;;5.49;100.00
52319;BME280;38258;51.148;14.068;2023-03-13T05:08:36;97310.59;;;5.54;100.00
52319;BME280;38258;51.148;14.068;2023-03-13T05:11:19;97312.69;;;5.40;100.00
52319;BME280;38258;51.148;14.068;2023-03-13T05:14:12;97304.22;;;5.31;100.00
52319;BME280;38258;51.148;14.068;2023-03-13T05:16:47;97310.09;;;5.38;100.00
52319;BME280;38258;51.148;14.068;2023-03-13T05:19:32;97301.84;;;5.22;100.00
52319;BME280;38258;51.148;14.068;2023-03-13T05:22:31;97295.34;;;5.42;100.00
52319;BME280;38258;51.148;14.068;2023-03-13T05:25:14;97293.03;;;5.29;100.00
52319;BME280;38258;51.148;14.068;2023-03-13T05:27:51;97295.72;;;5.26;100.00
52319;BME280;38258;51.148;14.068;2023-03-13T05:30:30;97293.00;;;5.31;100.00
52319;BME280;38258;51.148;14.068;2023-03-13T05:33:22;97286.09;;;5.30;100.00
52319;BME280;38258;51.148;14.068;2023-03-13T05:36:21;97276.63;;;5.29;100.00
52319;BME280;38258;51.148;14.068;2023-03-13T05:39:14;97258.66;;;5.21;100.00
52319;BME280;38258;51.148;14.068;2023-03-13T05:41:47;97276.13;;;5.49;100.00
52319;BME280;38258;51.148;14.068;2023-03-13T05:44:27;97267.50;;;5.48;100.00
52319;BME280;38258;51.148;14.068;2023-03-13T05:47:12;97243.06;;;5.57;100.00
52319;BME280;38258;51.148;14.068;2023-03-13T05:50:07;97243.06;;;5.57;100.00
52319;BME280;38258;51.148;14.068;2023-03-13T05:52:52;97246.03;;;5.75;100.00
52319;BME280;38258;51.148;14.068;2023-03-13T05:55:37;97244.91;;;5.85;100.00
52319;BME280;38258;51.148;14.068;2023-03-13T05:58:18;97209.16;;;5.63;100.00
52319;BME280;38258;51.148;14.068;2023-03-13T06:01:11;97243.00;;;5.92;100.00
52319;BME280;38258;51.148;14.068;2023-03-13T06:03:47;97242.88;;;5.97;100.00
52319;BME280;38258;51.148;14.068;2023-03-13T06:06:15;97244.56;;;5.98;100.00
52319;BME280;38258;51.148;14.068;2023-03-13T06:08:45;97236.13;;;5.89;100.00
52319;BME280;38258;51.148;14.068;2023-03-13T06:11:12;97203.16;;;5.93;100.00
52319;BME280;38258;51.148;14.068;2023-03-13T06:13:39;97227.56;;;6.19;100.00
52319;BME280;38258;51.148;14.068;2023-03-13T06:16:20;97227.03;;;6.06;100.00
52319;BME280;38258;51.148;14.068;2023-03-13T06:18:47;97221.59;;;6.15;100.00
52319;BME280;38258;51.148;14.068;2023-03-13T06:21:14;97215.06;;;6.30;100.00
52319;BME280;38258;51.148;14.068;2023-03-13T06:23:41;97215.16;;;6.29;100.00
52319;BME280;38258;51.148;14.068;2023-03-13T06:26:08;97200.81;;;6.15;100.00
52319;BME280;38258;51.148;14.068;2023-03-13T06:28:35;97203.41;;;6.15;100.00
52319;BME280;38258;51.148;14.068;2023-03-13T06:31:02;97222.03;;;6.30;100.00
52319;BME280;38258;51.148;14.068;2023-03-13T06:33:31;97214.84;;;6.38;100.00
52319;BME280;38258;51.148;14.068;2023-03-13T06:35:59;97174.91;;;6.14;100.00
52319;BME280;38258;51.148;14.068;2023-03-13T06:38:27;97201.13;;;6.34;100.00
52319;BME280;38258;51.148;14.068;2023-03-13T06:40:53;97181.97;;;6.37;100.00
52319;BME280;38258;51.148;14.068;2023-03-13T06:43:20;97181.91;;;6.40;100.00
52319;BME280;38258;51.148;14.068;2023-03-13T06:45:47;97182.75;;;6.41;100.00
52319;BME280;38258;51.148;14.068;2023-03-13T06:48:14;97179.81;;;6.51;100.00
52319;BME280;38258;51.148;14.068;2023-03-13T06:50:42;97153.63;;;6.31;100.00
52319;BME280;38258;51.148;14.068;2023-03-13T06:53:13;97179.25;;;6.42;100.00
52319;BME280;38258;51.148;14.068;2023-03-13T06:55:41;97175.50;;;6.50;100.00
52319;BME280;38258;51.148;14.068;2023-03-13T06:58:08;97165.31;;;6.44;100.00
52319;BME280;38258;51.148;14.068;2023-03-13T07:00:35;97157.50;;;6.46;100.00
52319;BME280;38258;51.148;14.068;2023-03-13T07:03:04;97154.13;;;6.42;100.00
52319;BME280;38258;51.148;14.068;2023-03-13T07:05:31;97140.94;;;6.48;100.00
52319;BME280;38258;51.148;14.068;2023-03-13T07:07:59;97134.13;;;6.46;100.00
52319;BME280;38258;51.148;14.068;2023-03-13T07:10:26;97132.13;;;6.53;100.00
52319;BME280;38258;51.148;14.068;2023-03-13T07:12:53;97137.69;;;6.69;100.00
52319;BME280;38258;51.148;14.068;2023-03-13T07:15:19;97133.31;;;6.71;100.00
52319;BME280;38258;51.148;14.068;2023-03-13T07:17:46;97127.31;;;6.69;100.00
52319;BME280;38258;51.148;14.068;2023-03-13T07:20:13;97126.00;;;6.82;100.00
52319;BME280;38258;51.148;14.068;2023-03-13T07:22:40;97127.50;;;6.89;100.00
52319;BME280;38258;51.148;14.068;2023-03-13T07:25:09;97095.69;;;6.83;100.00
52319;BME280;38258;51.148;14.068;2023-03-13T07:27:36;97121.06;;;7.00;100.00
52319;BME280;38258;51.148;14.068;2023-03-13T07:30:04;97103.03;;;6.95;100.00
52319;BME280;38258;51.148;14.068;2023-03-13T07:32:31;97093.22;;;7.03;100.00
52319;BME280;38258;51.148;14.068;2023-03-13T07:34:58;97106.19;;;7.29;100.00
52319;BME280;38258;51.148;14.068;2023-03-13T07:37:25;97095.28;;;7.19;100.00
52319;BME280;38258;51.148;14.068;2023-03-13T07:39:51;97100.00;;;7.57;100.00
52319;BME280;38258;51.148;14.068;2023-03-13T07:42:20;97097.34;;;7.34;100.00
52319;BME280;38258;51.148;14.068;2023-03-13T07:44:46;97102.59;;;7.57;100.00
52319;BME280;38258;51.148;14.068;2023-03-13T07:47:13;97103.78;;;7.48;100.00
52319;BME280;38258;51.148;14.068;2023-03-13T07:49:40;97094.13;;;7.52;100.00
52319;BME280;38258;51.148;14.068;2023-03-13T07:52:08;97090.38;;;7.35;100.00
52319;BME280;38258;51.148;14.068;2023-03-13T07:54:35;97086.00;;;7.12;100.00
52319;BME280;38258;51.148;14.068;2023-03-13T07:57:02;97080.50;;;6.96;100.00
52319;BME280;38258;51.148;14.068;2023-03-13T07:59:30;97080.16;;;6.79;100.00
52319;BME280;38258;51.148;14.068;2023-03-13T08:01:57;97091.56;;;6.75;100.00
52319;BME280;38258;51.148;14.068;2023-03-13T08:04:24;97083.75;;;6.77;100.00
52319;BME280;38258;51.148;14.068;2023-03-13T08:06:51;97076.41;;;6.88;100.00
52319;BME280;38258;51.148;14.068;2023-03-13T08:09:19;97065.22;;;6.86;100.00
52319;BME280;38258;51.148;14.068;2023-03-13T08:11:45;97066.34;;;6.79;100.00
52319;BME280;38258;51.148;14.068;2023-03-13T08:14:13;97076.78;;;6.77;100.00
52319;BME280;38258;51.148;14.068;2023-03-13T08:16:41;97072.03;;;6.90;100.00
52319;BME280;38258;51.148;14.068;2023-03-13T08:19:08;97077.22;;;6.90;100.00
52319;BME280;38258;51.148;14.068;2023-03-13T08:21:36;97061.28;;;6.74;100.00
52319;BME280;38258;51.148;14.068;2023-03-13T08:24:04;97090.09;;;6.68;100.00
52319;BME280;38258;51.148;14.068;2023-03-13T08:26:33;97074.44;;;6.70;100.00
52319;BME280;38258;51.148;14.068;2023-03-13T08:29:03;97084.00;;;6.69;100.00
52319;BME280;38258;51.148;14.068;2023-03-13T08:31:32;97084.97;;;6.65;100.00
52319;BME280;38258;51.148;14.068;2023-03-13T08:34:00;97086.09;;;6.58;100.00
52319;BME280;38258;51.148;14.068;2023-03-13T08:36:30;97105.72;;;6.67;100.00
52319;BME280;38258;51.148;14.068;2023-03-13T08:38:58;97101.97;;;6.75;100.00
52319;BME280;38258;51.148;14.068;2023-03-13T08:41:27;97095.94;;;6.75;100.00
52319;BME280;38258;51.148;14.068;2023-03-13T08:43:55;97099.19;;;6.82;100.00
52319;BME280;38258;51.148;14.068;2023-03-13T08:46:22;97109.56;;;6.82;100.00
52319;BME280;38258;51.148;14.068;2023-03-13T08:48:50;97074.53;;;6.67;100.00
52319;BME280;38258;51.148;14.068;2023-03-13T08:51:20;97087.06;;;6.81;100.00
52319;BME280;38258;51.148;14.068;2023-03-13T08:53:48;97096.50;;;6.83;100.00
52319;BME280;38258;51.148;14.068;2023-03-13T08:56:16;97087.88;;;6.83;100.00
52319;BME280;38258;51.148;14.068;2023-03-13T08:58:47;97095.06;;;7.00;100.00
52319;BME280;38258;51.148;14.068;2023-03-13T09:01:14;97084.41;;;6.82;100.00
52319;BME280;38258;51.148;14.068;2023-03-13T09:03:41;97077.22;;;6.90;100.00
52319;BME280;38258;51.148;14.068;2023-03-13T09:06:09;97069.34;;;6.92;100.00
52319;BME280;38258;51.148;14.068;2023-03-13T09:08:38;97061.63;;;6.90;100.00
52319;BME280;38258;51.148;14.068;2023-03-13T09:11:06;97052.81;;;6.95;100.00
52319;BME280;38258;51.148;14.068;2023-03-13T09:13:36;97066.38;;;7.03;100.00
52319;BME280;38258;51.148;14.068;2023-03-13T09:16:04;97053.69;;;7.19;100.00
52319;BME280;38258;51.148;14.068;2023-03-13T09:18:32;97052.13;;;7.13;100.00
52319;BME280;38258;51.148;14.068;2023-03-13T09:20:59;97039.72;;;7.21;100.00
52319;BME280;38258;51.148;14.068;2023-03-13T09:23:26;97050.19;;;7.44;100.00
52319;BME280;38258;51.148;14.068;2023-03-13T09:25:55;97066.88;;;7.38;100.00
52319;BME280;38258;51.148;14.068;2023-03-13T09:28:23;97068.69;;;7.36;100.00
52319;BME280;38258;51.148;14.068;2023-03-13T09:30:50;97075.69;;;7.34;100.00
52319;BME280;38258;51.148;14.068;2023-03-13T09:33:18;97063.59;;;7.33;100.00
52319;BME280;38258;51.148;14.068;2023-03-13T09:35:45;97066.88;;;7.38;100.00
52319;BME280;38258;51.148;14.068;2023-03-13T09:38:15;97051.59;;;7.29;100.00
52319;BME280;38258;51.148;14.068;2023-03-13T09:40:44;97070.78;;;7.26;100.00
52319;BME280;38258;51.148;14.068;2023-03-13T09:43:20;97071.19;;;7.38;100.00
52319;BME280;38258;51.148;14.068;2023-03-13T09:45:53;97051.97;;;7.18;100.00
52319;BME280;38258;51.148;14.068;2023-03-13T09:48:30;97059.19;;;7.35;100.00
52319;BME280;38258;51.148;14.068;2023-03-13T09:51:03;97063.72;;;7.52;100.00
52319;BME280;38258;51.148;14.068;2023-03-13T09:53:38;97066.75;;;7.41;100.00
52319;BME280;38258;51.148;14.068;2023-03-13T09:56:12;97057.75;;;7.26;100.00
52319;BME280;38258;51.148;14.068;2023-03-13T09:58:49;97060.09;;;7.08;100.00
52319;BME280;38258;51.148;14.068;2023-03-13T10:01:20;97043.50;;;7.13;100.00
52319;BME280;38258;51.148;14.068;2023-03-13T10:03:58;97049.75;;;7.31;100.00
52319;BME280;38258;51.148;14.068;2023-03-13T10:06:29;97046.78;;;7.42;100.00
52319;BME280;38258;51.148;14.068;2023-03-13T10:08:58;97034.56;;;7.44;100.00
52319;BME280;38258;51.148;14.068;2023-03-13T10:11:30;97035.72;;;7.59;100.00
52319;BME280;38258;51.148;14.068;2023-03-13T10:14:02;97013.63;;;7.47;100.00
52319;BME280;38258;51.148;14.068;2023-03-13T10:16:34;97031.53;;;7.78;100.00
52319;BME280;38258;51.148;14.068;2023-03-13T10:19:10;97018.09;;;7.89;100.00
52319;BME280;38258;51.148;14.068;2023-03-13T10:21:38;97020.44;;;7.96;100.00
52319;BME280;38258;51.148;14.068;2023-03-13T10:24:13;97010.59;;;8.25;100.00
52319;BME280;38258;51.148;14.068;2023-03-13T10:26:42;97015.78;;;8.47;100.00
52319;BME280;38258;51.148;14.068;2023-03-13T10:29:20;97011.66;;;8.63;100.00
52319;BME280;38258;51.148;14.068;2023-03-13T10:31:54;97006.69;;;8.57;100.00
52319;BME280;38258;51.148;14.068;2023-03-13T10:34:22;97013.16;;;8.69;100.00
52319;BME280;38258;51.148;14.068;2023-03-13T10:36:54;97009.28;;;8.57;100.00
52319;BME280;38258;51.148;14.068;2023-03-13T10:39:23;97009.16;;;8.81;100.00
52319;BME280;38258;51.148;14.068;2023-03-13T10:41:56;96993.47;;;8.83;100.00
52319;BME280;38258;51.148;14.068;2023-03-13T10:44:29;96990.94;;;9.00;100.00
52319;BME280;38258;51.148;14.068;2023-03-13T10:47:00;97005.97;;;9.33;100.00
52319;BME280;38258;51.148;14.068;2023-03-13T10:49:28;97000.97;;;9.48;100.00
52319;BME280;38258;51.148;14.068;2023-03-13T10:51:57;97006.97;;;9.31;100.00
52319;BME280;38258;51.148;14.068;2023-03-13T10:54:26;96996.81;;;9.63;100.00
52319;BME280;38258;51.148;14.068;2023-03-13T10:57:08;97005.69;;;9.59;100.00
52319;BME280;38258;51.148;14.068;2023-03-13T10:59:42;97000.75;;;9.33;100.00
52319;BME280;38258;51.148;14.068;2023-03-13T11:02:18;97010.06;;;9.39;100.00
52319;BME280;38258;51.148;14.068;2023-03-13T11:04:46;97008.03;;;9.46;100.00
52319;BME280;38258;51.148;14.068;2023-03-13T11:07:20;97012.03;;;9.53;100.00
52319;BME280;38258;51.148;14.068;2023-03-13T11:09:58;97017.56;;;9.47;100.00
52319;BME280;38258;51.148;14.068;2023-03-13T11:12:25;97019.59;;;9.40;100.00
52319;BME280;38258;51.148;14.068;2023-03-13T11:14:57;96997.09;;;9.18;100.00
52319;BME280;38258;51.148;14.068;2023-03-13T11:17:30;97004.06;;;9.18;100.00
52319;BME280;38258;51.148;14.068;2023-03-13T11:20:05;97018.44;;;9.08;100.00
52319;BME280;38258;51.148;14.068;2023-03-13T11:22:49;97020.41;;;8.82;100.00
52319;BME280;38258;51.148;14.068;2023-03-13T11:25:21;97013.78;;;8.74;100.00
52319;BME280;38258;51.148;14.068;2023-03-13T11:27:57;97010.72;;;8.65;100.00
52319;BME280;38258;51.148;14.068;2023-03-13T11:30:43;97007.59;;;8.56;100.00
52319;BME280;38258;51.148;14.068;2023-03-13T11:33:20;97013.06;;;8.50;100.00
52319;BME280;38258;51.148;14.068;2023-03-13T11:35:56;97003.53;;;8.49;100.00
52319;BME280;38258;51.148;14.068;2023-03-13T11:38:28;97005.00;;;8.56;100.00
52319;BME280;38258;51.148;14.068;2023-03-13T11:41:04;97005.44;;;8.66;100.00
52319;BME280;38258;51.148;14.068;2023-03-13T11:43:56;96975.16;;;8.63;100.00
52319;BME280;38258;51.148;14.068;2023-03-13T11:46:35;96987.97;;;8.89;100.00
52319;BME280;38258;51.148;14.068;2023-03-13T11:49:31;96988.81;;;8.89;100.00
52319;BME280;38258;51.148;14.068;2023-03-13T11:52:10;97000.31;;;9.04;100.00
52319;BME280;38258;51.148;14.068;2023-03-13T11:55:02;96986.78;;;9.15;100.00
52319;BME280;38258;51.148;14.068;2023-03-13T11:57:42;96986.59;;;9.20;100.00
52319;BME280;38258;51.148;14.068;2023-03-13T12:00:26;96985.97;;;9.15;100.00
52319;BME280;38258;51.148;14.068;2023-03-13T12:03:01;96980.78;;;9.13;100.00
52319;BME280;38258;51.148;14.068;2023-03-13T12:05:37;96982.66;;;9.30;100.00
52319;BME280;38258;51.148;14.068;2023-03-13T12:08:10;96951.97;;;9.16;100.00
52319;BME280;38258;51.148;14.068;2023-03-13T12:10:42;96956.97;;;9.40;100.00
52319;BME280;38258;51.148;14.068;2023-03-13T12:13:14;96959.56;;;9.40;100.00
52319;BME280;38258;51.148;14.068;2023-03-13T12:15:44;96960.78;;;9.33;100.00
52319;BME280;38258;51.148;14.068;2023-03-13T12:18:17;96947.84;;;9.49;100.00
52319;BME280;38258;51.148;14.068;2023-03-13T12:20:51;96932.72;;;9.38;100.00
52319;BME280;38258;51.148;14.068;2023-03-13T12:23:24;96946.53;;;9.77;100.00
52319;BME280;38258;51.148;14.068;2023-03-13T12:25:57;96928.19;;;9.79;100.00
52319;BME280;38258;51.148;14.068;2023-03-13T12:28:34;96943.13;;;10.12;100.00
52319;BME280;38258;51.148;14.068;2023-03-13T12:31:08;96942.13;;;10.32;100.00
52319;BME280;38258;51.148;14.068;2023-03-13T12:33:43;96932.44;;;10.52;100.00
52319;BME280;38258;51.148;14.068;2023-03-13T12:36:17;96937.03;;;10.64;100.00
52319;BME280;38258;51.148;14.068;2023-03-13T12:38:48;96914.13;;;10.69;100.00
52319;BME280;38258;51.148;14.068;2023-03-13T12:41:21;96929.50;;;10.75;100.00
52319;BME280;38258;51.148;14.068;2023-03-13T12:43:51;96910.63;;;11.02;100.00
52319;BME280;38258;51.148;14.068;2023-03-13T12:46:32;96910.66;;;11.35;100.00
52319;BME280;38258;51.148;14.068;2023-03-13T12:49:35;96904.38;;;11.53;100.00
52319;BME280;38258;51.148;14.068;2023-03-13T12:52:19;96896.06;;;11.77;100.00
52319;BME280;38258;51.148;14.068;2023-03-13T12:55:05;96890.66;;;11.80;100.00
52319;BME280;38258;51.148;14.068;2023-03-13T12:58:10;96899.97;;;12.00;100.00
52319;BME280;38258;51.148;14.068;2023-03-13T13:00:41;96884.03;;;12.05;100.00
52319;BME280;38258;51.148;14.068;2023-03-13T13:03:20;96883.84;;;12.08;100.00
52319;BME280;38258;51.148;14.068;2023-03-13T13:06:05;96895.25;;;12.07;100.00
52319;BME280;38258;51.148;14.068;2023-03-13T13:08:36;96899.84;;;12.18;100.00
52319;BME280;38258;51.148;14.068;2023-03-13T13:14:56;96890.53;;;12.28;100.00
52319;BME280;38258;51.148;14.068;2023-03-13T13:17:50;96897.16;;;12.20;100.00
52319;BME280;38258;51.148;14.068;2023-03-13T13:20:47;96905.06;;;12.34;100.00